Time;durP1;ratioP1;P1;durP2;ratioP2;P2;SDS_P1;SDS_P2;PMS_P1;PMS_P2;Temp;Humidity;BMP_temperature;BMP_pressure;BME280_temperature;BME280_humidity;BME280_pressure;Samples;Min_cycle;Max_cycle;Signal;HPM_P1;HPM_P2
2024/01/04 00:02:13;;;;;;;5.70;5.10;;;5.50;90.90;;;;;;5035845;28;20656;-92
2024/01/04 00:04:40;;;;;;;5.63;5.13;;;5.50;90.20;;;;;;5054345;28;20628;-90
2024/01/04 00:07:08;;;;;;;5.90;5.33;;;5.60;90.00;;;;;;5056118;28;20173;-92
2024/01/04 00:09:34;;;;;;;6.20;5.53;;;5.50;90.00;;;;;;5055458;28;20280;-92
2024/01/04 00:12:09;;;;;;;6.13;5.53;;;5.50;90.20;;;;;;5057376;28;20219;-91
2024/01/04 00:14:37;;;;;;;6.47;5.20;;;5.50;90.40;;;;;;5060924;28;20164;-92
2024/01/04 00:17:03;;;;;;;5.20;4.90;;;5.50;90.60;;;;;;5057271;28;20165;-89
2024/01/04 00:19:35;;;;;;;11.60;5.60;;;5.40;90.60;;;;;;5064137;28;20208;-90
2024/01/04 00:22:00;;;;;;;6.23;5.50;;;5.30;90.60;;;;;;5059222;28;20177;-89
2024/01/04 00:24:26;;;;;;;17.40;16.30;;;5.30;90.50;;;;;;5057852;28;20257;-90
2024/01/04 00:26:54;;;;;;;16.80;15.40;;;5.30;90.40;;;;;;5041189;28;20262;-90
2024/01/04 00:29:19;;;;;;;16.47;15.27;;;5.30;90.40;;;;;;5047358;28;20219;-91
2024/01/04 00:31:46;;;;;;;15.90;14.90;;;5.30;90.50;;;;;;5044068;28;20180;-90
2024/01/04 00:34:12;;;;;;;16.73;15.63;;;5.30;90.30;;;;;;5044386;28;20184;-92
2024/01/04 00:36:37;;;;;;;16.37;15.10;;;5.30;90.40;;;;;;5045571;28;20211;-91
2024/01/04 00:39:03;;;;;;;16.30;15.20;;;5.30;90.50;;;;;;5040241;28;20184;-90
2024/01/04 00:41:28;;;;;;;15.90;14.90;;;5.30;90.50;;;;;;5038919;28;20595;-92
2024/01/04 00:43:54;;;;;;;16.97;15.77;;;5.30;90.60;;;;;;5038033;28;20188;-91
2024/01/04 00:46:22;;;;;;;15.70;14.40;;;5.30;90.60;;;;;;5037951;28;20226;-92
2024/01/04 00:48:47;;;;;;;16.20;14.93;;;5.30;90.80;;;;;;5037079;28;20201;-91
2024/01/04 00:51:13;;;;;;;15.60;14.40;;;5.20;90.90;;;;;;5036900;28;20283;-90
2024/01/04 00:53:39;;;;;;;16.23;14.87;;;5.20;91.00;;;;;;5034826;28;20181;-93
2024/01/04 00:56:05;;;;;;;6.10;5.60;;;5.20;91.10;;;;;;5035970;28;20172;-91
2024/01/04 00:58:31;;;;;;;5.40;5.00;;;5.20;91.10;;;;;;5051928;28;20180;-90
2024/01/04 01:00:57;;;;;;;6.33;5.30;;;5.20;91.10;;;;;;5036114;28;20566;-93
2024/01/04 01:03:23;;;;;;;7.57;6.20;;;5.10;90.70;;;;;;5051633;28;20670;-91
2024/01/04 01:05:49;;;;;;;6.27;5.73;;;5.10;90.30;;;;;;5053918;28;20180;-92
2024/01/04 01:08:16;;;;;;;6.33;5.73;;;5.00;90.40;;;;;;5052226;28;20203;-91
2024/01/04 01:10:41;;;;;;;7.63;6.10;;;5.00;90.30;;;;;;5052774;28;20286;-92
2024/01/04 01:13:07;;;;;;;6.83;6.23;;;5.00;90.30;;;;;;5052818;28;20177;-92
2024/01/04 01:15:32;;;;;;;6.30;5.80;;;5.00;90.50;;;;;;5052260;28;20263;-91
2024/01/04 01:18:00;;;;;;;18.90;17.40;;;5.00;90.20;;;;;;5051752;28;20211;-92
2024/01/04 01:20:26;;;;;;;18.20;16.87;;;5.00;90.10;;;;;;5034544;28;20683;-91
2024/01/04 01:22:51;;;;;;;17.90;16.80;;;4.90;90.10;;;;;;5034932;28;20280;-91
2024/01/04 01:25:17;;;;;;;19.23;17.30;;;4.90;89.90;;;;;;5034967;28;20180;-92
2024/01/04 01:27:42;;;;;;;18.43;16.80;;;4.90;89.80;;;;;;5034610;28;20208;-91
2024/01/04 01:30:08;;;;;;;17.33;16.23;;;4.90;90.00;;;;;;5035114;28;20203;-93
2024/01/04 01:32:34;;;;;;;17.97;16.23;;;4.80;90.10;;;;;;5036139;28;20180;-92
2024/01/04 01:34:59;;;;;;;16.67;15.10;;;4.90;90.30;;;;;;5036118;28;20668;-90
2024/01/04 01:37:25;;;;;;;18.00;16.60;;;4.90;90.40;;;;;;5035004;28;20180;-90
2024/01/04 01:39:50;;;;;;;17.67;16.43;;;4.90;90.50;;;;;;5035032;28;20687;-91
2024/01/04 01:42:17;;;;;;;16.90;15.90;;;4.80;90.20;;;;;;5034350;28;20186;-92
2024/01/04 01:44:42;;;;;;;17.10;15.90;;;4.80;90.40;;;;;;5036090;28;20182;-91
2024/01/04 01:47:08;;;;;;;5.70;5.17;;;4.70;90.70;;;;;;5035116;28;20176;-92
2024/01/04 01:49:34;;;;;;;5.03;4.67;;;4.70;90.90;;;;;;5051938;28;20223;-92
2024/01/04 01:52:00;;;;;;;5.53;5.03;;;4.70;90.90;;;;;;5053676;28;20188;-91
2024/01/04 01:54:26;;;;;;;11.00;5.50;;;4.70;91.00;;;;;;5052835;28;20213;-92
2024/01/04 01:56:52;;;;;;;7.77;5.90;;;4.70;91.00;;;;;;5052390;28;20279;-91
2024/01/04 01:59:20;;;;;;;6.13;5.60;;;4.60;91.00;;;;;;5051858;28;20184;-91
2024/01/04 02:01:46;;;;;;;7.87;6.57;;;4.60;90.90;;;;;;5034960;28;20592;-91
2024/01/04 02:04:11;;;;;;;6.83;5.80;;;4.60;90.20;;;;;;5052219;28;20180;-92
2024/01/04 02:06:37;;;;;;;6.93;6.33;;;4.60;90.10;;;;;;5052052;28;20195;-91
2024/01/04 02:09:03;;;;;;;20.87;19.57;;;4.60;89.70;;;;;;5051175;28;20204;-92
2024/01/04 02:11:28;;;;;;;22.07;20.83;;;4.60;89.10;;;;;;5035093;28;20173;-91
2024/01/04 02:13:54;;;;;;;21.75;20.25;;;4.60;88.80;;;;;;5035411;28;20226;-92
2024/01/04 02:16:19;;;;;;;;;;;4.60;88.30;;;;;;5035106;28;20218;-92
2024/01/04 02:18:45;;;;;;;;;;;4.50;88.20;;;;;;5035873;28;19917;-91
2024/01/04 02:21:11;;;;;;;;;;;4.50;88.10;;;;;;5035519;28;19956;-91
2024/01/04 02:23:37;;;;;;;;;;;4.50;88.00;;;;;;5036726;28;19952;-92
2024/01/04 02:26:02;;;;;;;;;;;4.40;88.10;;;;;;5037244;28;19916;-91
2024/01/04 02:28:28;;;;;;;;;;;4.40;88.10;;;;;;5035363;28;19923;-91
2024/01/04 02:30:53;;;;;;;;;;;4.40;87.70;;;;;;5037415;28;19916;-92
2024/01/04 02:33:19;;;;;;;;;;;4.30;87.80;;;;;;5037289;28;19931;-91
2024/01/04 02:35:44;;;;;;;24.43;22.87;;;4.30;87.70;;;;;;5035103;28;20197;-91
2024/01/04 02:38:10;;;;;;;23.93;22.27;;;4.30;87.40;;;;;;5035802;28;20324;-91
2024/01/04 02:40:36;;;;;;;8.67;8.13;;;4.30;87.40;;;;;;5036305;28;20233;-92
2024/01/04 02:43:02;;;;;;;8.77;8.20;;;4.20;87.40;;;;;;5053472;28;20180;-90
2024/01/04 02:45:28;;;;;;;8.40;7.80;;;4.20;87.60;;;;;;5051955;28;20310;-91
2024/01/04 02:47:53;;;;;;;9.13;8.30;;;4.20;87.70;;;;;;5051774;28;20670;-92
2024/01/04 02:50:19;;;;;;;14.40;8.60;;;4.10;87.40;;;;;;5051124;28;20199;-92
2024/01/04 02:52:45;;;;;;;8.83;7.90;;;4.10;87.00;;;;;;5051366;28;20178;-91
2024/01/04 02:55:10;;;;;;;8.40;7.90;;;4.20;87.30;;;;;;5051379;28;20176;-91
2024/01/04 02:57:36;;;;;;;8.57;7.90;;;4.20;87.50;;;;;;5051506;28;20202;-91
2024/01/04 03:00:01;;;;;;;8.27;7.57;;;4.10;87.60;;;;;;5054616;28;20215;-91
2024/01/04 03:02:27;;;;;;;23.80;22.40;;;4.10;87.90;;;;;;5052710;28;20355;-91
2024/01/04 03:04:52;;;;;;;22.27;20.87;;;4.00;87.20;;;;;;5035369;28;20176;-91
2024/01/04 03:07:19;;;;;;;24.43;22.83;;;4.00;87.30;;;;;;5034916;28;20187;-92
2024/01/04 03:09:45;;;;;;;20.90;19.70;;;4.00;87.20;;;;;;5034101;28;20207;-92
2024/01/04 03:12:10;;;;;;;22.37;20.93;;;4.00;87.40;;;;;;5034582;28;20232;-92
2024/01/04 03:14:36;;;;;;;22.27;21.07;;;4.00;87.50;;;;;;5037219;28;20170;-91
2024/01/04 03:17:02;;;;;;;21.93;20.70;;;3.90;87.50;;;;;;5035809;28;20183;-92
2024/01/04 03:19:28;;;;;;;19.83;18.50;;;3.90;87.80;;;;;;5035791;28;20560;-93
2024/01/04 03:21:53;;;;;;;19.40;18.23;;;3.90;88.30;;;;;;5036870;28;20209;-92
2024/01/04 03:24:19;;;;;;;19.13;17.97;;;3.80;88.60;;;;;;5035855;28;20177;-92
2024/01/04 03:26:44;;;;;;;19.07;17.97;;;3.80;89.00;;;;;;5033814;28;20677;-91
2024/01/04 03:29:10;;;;;;;20.50;19.17;;;3.80;89.20;;;;;;5033983;28;20207;-91
2024/01/04 03:31:36;;;;;;;7.40;6.90;;;3.70;89.30;;;;;;5034051;28;20173;-92
2024/01/04 03:34:01;;;;;;;6.53;6.03;;;3.60;89.60;;;;;;5052611;28;20181;-94
2024/01/04 03:36:27;;;;;;;6.93;6.43;;;3.60;90.00;;;;;;5051230;28;20649;-92
2024/01/04 03:38:53;;;;;;;6.37;5.97;;;3.50;90.20;;;;;;5052871;28;20273;-92
2024/01/04 03:41:18;;;;;;;6.20;5.80;;;3.50;90.60;;;;;;5055505;28;20196;-92
2024/01/04 03:43:44;;;;;;;10.23;5.50;;;3.50;90.80;;;;;;5055197;28;20200;-91
2024/01/04 03:46:10;;;;;;;6.20;5.80;;;3.40;90.40;;;;;;5054701;28;20175;-90
2024/01/04 03:48:35;;;;;;;5.90;5.50;;;3.30;90.40;;;;;;5054221;28;20193;-90
2024/01/04 03:51:01;;;;;;;5.53;5.23;;;3.40;90.70;;;;;;5054891;28;20196;-91
2024/01/04 03:53:27;;;;;;;15.47;14.47;;;3.30;90.80;;;;;;5055319;28;20705;-91
2024/01/04 03:55:52;;;;;;;17.10;16.00;;;3.30;91.00;;;;;;5038011;28;20178;-92
2024/01/04 03:58:18;;;;;;;14.87;13.97;;;3.10;91.00;;;;;;5038322;28;20200;-90
2024/01/04 04:00:44;;;;;;;15.33;14.13;;;3.10;91.00;;;;;;5037401;28;20207;-92
2024/01/04 04:03:09;;;;;;;14.27;13.47;;;3.10;91.20;;;;;;5039327;28;20182;-92
2024/01/04 04:05:35;;;;;;;14.93;13.73;;;2.90;91.20;;;;;;5037907;28;20184;-91
2024/01/04 04:08:01;;;;;;;14.63;13.63;;;3.00;91.40;;;;;;5038047;28;20275;-90
2024/01/04 04:10:26;;;;;;;14.93;14.13;;;3.00;91.30;;;;;;5037797;28;20193;-92
2024/01/04 04:12:52;;;;;;;15.60;14.63;;;2.80;91.20;;;;;;5037180;28;20199;-92
2024/01/04 04:15:17;;;;;;;15.13;14.23;;;2.80;91.30;;;;;;5037380;28;20180;-90
2024/01/04 04:17:43;;;;;;;13.67;12.90;;;2.80;91.40;;;;;;5036337;28;20201;-91
2024/01/04 04:20:09;;;;;;;15.70;14.80;;;2.80;91.40;;;;;;5037240;28;20315;-91
2024/01/04 04:22:35;;;;;;;5.53;5.23;;;2.80;91.50;;;;;;5037879;28;20206;-91
2024/01/04 04:25:00;;;;;;;6.30;5.90;;;2.70;91.40;;;;;;5053250;28;20273;-91
2024/01/04 04:27:26;;;;;;;6.10;5.70;;;2.60;91.30;;;;;;5052827;28;20267;-91
2024/01/04 04:29:51;;;;;;;6.00;5.60;;;2.60;91.40;;;;;;5054437;28;20214;-91
2024/01/04 04:32:18;;;;;;;6.10;5.80;;;2.60;91.50;;;;;;5053064;28;20271;-91
2024/01/04 04:34:44;;;;;;;6.30;5.90;;;2.60;91.60;;;;;;5053185;28;20173;-91
2024/01/04 04:37:09;;;;;;;6.00;5.60;;;2.60;91.70;;;;;;5052892;28;20207;-92
2024/01/04 04:39:35;;;;;;;6.33;5.93;;;2.60;91.70;;;;;;5052396;28;20225;-91
2024/01/04 04:42:00;;;;;;;6.60;6.20;;;2.50;91.70;;;;;;5052453;28;20200;-91
2024/01/04 04:44:26;;;;;;;18.30;17.00;;;2.50;91.70;;;;;;5054243;28;20215;-92
2024/01/04 04:46:53;;;;;;;17.60;16.50;;;2.40;91.70;;;;;;5038408;28;20820;-92
2024/01/04 04:49:19;;;;;;;17.60;16.40;;;2.50;91.90;;;;;;5034949;28;20262;-93
2024/01/04 04:51:48;;;;;;;19.13;18.03;;;2.40;91.70;;;;;;5034782;28;20644;-90
2024/01/04 04:54:17;;;;;;;20.63;19.43;;;2.30;91.60;;;;;;5035139;28;20271;-92
2024/01/04 04:56:43;;;;;;;7.73;7.13;;;2.20;91.70;;;;;;5035098;28;20184;-91
2024/01/04 04:59:09;;;;;;;7.07;6.67;;;2.10;91.70;;;;;;5052440;28;20185;-91
2024/01/04 05:01:35;;;;;;;18.17;17.07;;;2.00;91.90;;;;;;5052365;28;20208;-92
2024/01/04 05:04:01;;;;;;;18.57;17.37;;;2.00;92.10;;;;;;5035679;28;20628;-92
2024/01/04 05:06:26;;;;;;;7.07;6.47;;;2.00;92.20;;;;;;5034965;28;20215;-92
2024/01/04 05:08:52;;;;;;;7.10;6.53;;;2.00;92.40;;;;;;5051967;28;20200;-92
2024/01/04 05:11:18;;;;;;;17.23;16.13;;;1.90;92.40;;;;;;5051557;28;20200;-91
2024/01/04 05:13:43;;;;;;;;;;;2.00;92.60;;;;;;5035786;28;20227;-91
2024/01/04 05:16:10;;;;;;;13.53;12.50;;;1.90;92.60;;;;;;5035448;28;20176;-92
2024/01/04 05:18:36;;;;;;;7.43;6.93;;;1.90;92.60;;;;;;5034350;28;20192;-91
2024/01/04 05:21:02;;;;;;;8.30;7.60;;;1.90;92.70;;;;;;5051230;28;20197;-91
2024/01/04 05:23:28;;;;;;;7.23;6.73;;;1.80;92.70;;;;;;5051640;28;20268;-92
2024/01/04 05:25:54;;;;;;;8.20;7.50;;;1.90;92.90;;;;;;5051468;28;20664;-92
2024/01/04 05:28:20;;;;;;;9.50;7.70;;;1.90;92.90;;;;;;5052344;28;20196;-91
2024/01/04 05:30:46;;;;;;;9.43;8.43;;;1.90;93.00;;;;;;5052167;28;19905;-92
2024/01/04 05:33:11;;;;;;;7.67;6.97;;;1.90;93.00;;;;;;5051572;28;20594;-92
2024/01/04 05:35:37;;;;;;;7.97;7.27;;;1.80;93.00;;;;;;5052197;28;20168;-92
2024/01/04 05:38:03;;;;;;;18.10;16.90;;;1.90;93.10;;;;;;5053004;28;20555;-91
2024/01/04 05:40:29;;;;;;;18.17;17.07;;;2.00;93.20;;;;;;5035582;28;20288;-92
2024/01/04 05:42:57;;;;;;;17.70;16.50;;;2.00;93.00;;;;;;5034729;28;20558;-91
2024/01/04 05:45:23;;;;;;;18.93;17.70;;;1.90;92.80;;;;;;5035303;28;20177;-92
2024/01/04 05:47:48;;;;;;;18.80;17.50;;;1.80;92.60;;;;;;5034636;28;20192;-93
2024/01/04 05:50:14;;;;;;;17.73;16.57;;;1.90;92.60;;;;;;5035274;28;20199;-93
2024/01/04 05:52:40;;;;;;;19.47;18.27;;;1.80;92.40;;;;;;5036166;28;20192;-92
2024/01/04 05:55:06;;;;;;;19.33;18.03;;;1.80;92.30;;;;;;5034433;28;20645;-92
2024/01/04 05:57:32;;;;;;;18.77;17.47;;;1.80;92.20;;;;;;5035856;28;20183;-92
2024/01/04 05:59:57;;;;;;;18.70;17.47;;;1.80;92.10;;;;;;5036380;28;20201;-91
2024/01/04 06:02:26;;;;;;;12.47;11.53;;;1.90;92.10;;;;;;5034460;28;20172;-90
2024/01/04 06:04:52;;;;;;;9.30;8.60;;;1.90;92.00;;;;;;5035402;28;20169;-93
2024/01/04 06:07:18;;;;;;;8.50;7.90;;;1.80;91.90;;;;;;5051854;28;20268;-93
2024/01/04 06:09:43;;;;;;;8.73;8.03;;;1.80;91.80;;;;;;5051625;28;20649;-92
2024/01/04 06:12:09;;;;;;;8.37;7.73;;;1.80;91.90;;;;;;5051222;28;20177;-91
2024/01/04 06:14:35;;;;;;;8.40;7.73;;;1.80;92.00;;;;;;5051674;28;20675;-92
2024/01/04 06:17:01;;;;;;;20.33;19.03;;;1.70;91.90;;;;;;5052964;28;20549;-93
2024/01/04 06:19:27;;;;;;;16.77;15.70;;;1.70;91.90;;;;;;5041407;28;20208;-92
2024/01/04 06:21:53;;;;;;;20.40;19.10;;;1.80;91.90;;;;;;5034532;28;20189;-94
2024/01/04 06:24:19;;;;;;;21.17;19.40;;;1.70;91.80;;;;;;5036013;28;20255;-92
2024/01/04 06:26:45;;;;;;;21.23;19.83;;;1.70;91.80;;;;;;5035470;28;20188;-92
2024/01/04 06:29:10;;;;;;;21.57;20.17;;;1.70;91.70;;;;;;5036044;28;20197;-92
2024/01/04 06:31:36;;;;;;;21.27;19.97;;;1.70;91.70;;;;;;5036841;28;20172;-93
2024/01/04 06:34:02;;;;;;;21.30;19.90;;;1.60;91.70;;;;;;5039348;28;20238;-92
2024/01/04 06:36:28;;;;;;;22.20;20.80;;;1.60;91.60;;;;;;5037007;28;20176;-92
2024/01/04 06:38:54;;;;;;;22.33;20.80;;;1.50;91.60;;;;;;5037195;28;20173;-92
2024/01/04 06:41:20;;;;;;;20.20;18.83;;;1.50;91.80;;;;;;5041348;28;20260;-90
2024/01/04 06:43:46;;;;;;;9.10;8.40;;;1.50;91.80;;;;;;5036174;28;20662;-90
2024/01/04 06:46:14;;;;;;;8.80;8.20;;;1.50;91.80;;;;;;5056641;28;20215;-92
2024/01/04 06:49:05;;;;;;;8.77;7.97;;;1.30;91.70;;;;;;5059065;28;20201;-91
2024/01/04 06:51:37;;;;;;;8.83;8.20;;;1.30;91.90;;;;;;5053594;28;20176;-93
2024/01/04 06:54:10;;;;;;;9.00;8.20;;;1.40;92.00;;;;;;5054297;28;20172;-93
2024/01/04 06:56:54;;;;;;;8.93;8.10;;;1.40;92.00;;;;;;5052045;28;20648;-92
2024/01/04 06:59:20;;;;;;;23.83;22.20;;;1.40;92.00;;;;;;5053255;28;20192;-92
2024/01/04 07:01:46;;;;;;;22.67;21.17;;;1.30;92.00;;;;;;5034504;28;20675;-92
2024/01/04 07:04:11;;;;;;;23.30;21.80;;;1.40;92.10;;;;;;5036059;28;20185;-92
2024/01/04 07:06:54;;;;;;;23.03;21.47;;;1.40;92.10;;;;;;5034996;28;20194;-92
2024/01/04 07:09:35;;;;;;;21.93;20.43;;;1.30;92.10;;;;;;5035935;28;20208;-91
2024/01/04 07:12:43;;;;;;;21.67;20.17;;;1.30;92.10;;;;;;5030015;28;20628;-92
2024/01/04 07:15:26;;;;;;;20.27;19.00;;;1.30;92.10;;;;;;5048815;28;20198;-93
2024/01/04 07:18:39;;;;;;;8.30;7.77;;;1.20;92.10;;;;;;5034313;28;20196;-92
2024/01/04 07:21:05;;;;;;;9.20;8.40;;;1.30;92.10;;;;;;4994007;28;20212;-91
2024/01/04 07:23:31;;;;;;;22.17;20.67;;;1.30;92.10;;;;;;5027550;28;20239;-92
2024/01/04 07:35:40;;;;;;;17.60;16.40;;;1.30;91.90;;;;;;5029537;28;20192;-91
2024/01/04 07:38:06;;;;;;;16.80;15.80;;;1.20;91.80;;;;;;5042086;28;20194;-93
2024/01/04 07:40:32;;;;;;;9.90;9.10;;;1.30;91.80;;;;;;5036617;28;20234;-93
2024/01/04 07:42:57;;;;;;;9.90;9.20;;;1.30;91.70;;;;;;5035186;28;20231;-91
2024/01/04 07:45:23;;;;;;;18.50;17.40;;;1.30;91.80;;;;;;5051679;28;20598;-91
2024/01/04 07:47:48;;;;;;;19.33;18.13;;;1.30;91.70;;;;;;5036337;28;20204;-92
2024/01/04 07:50:14;;;;;;;27.10;25.47;;;1.40;91.50;;;;;;5039663;28;20207;-91
2024/01/04 07:52:40;;;;;;;11.03;10.33;;;1.30;91.30;;;;;;5038263;28;20183;-92
2024/01/04 07:55:05;;;;;;;11.40;10.50;;;1.30;91.10;;;;;;5032918;28;20178;-92
2024/01/04 07:57:31;;;;;;;26.23;24.63;;;1.30;90.90;;;;;;5033224;28;20252;-92
2024/01/04 07:59:56;;;;;;;25.67;24.17;;;1.40;90.80;;;;;;5032946;28;20200;-91
2024/01/04 08:02:22;;;;;;;29.63;27.43;;;1.40;90.60;;;;;;5033067;28;20177;-93
2024/01/04 08:04:48;;;;;;;19.87;18.57;;;1.40;90.50;;;;;;5032787;28;20573;-93
2024/01/04 08:07:13;;;;;;;19.40;18.20;;;1.40;90.40;;;;;;5034490;28;20208;-92
2024/01/04 08:09:39;;;;;;;26.13;24.53;;;1.30;90.30;;;;;;5040667;28;20235;-92
2024/01/04 08:12:05;;;;;;;24.50;22.90;;;1.30;90.30;;;;;;5040350;28;20286;-92
2024/01/04 08:14:35;;;;;;;26.30;24.63;;;1.40;90.30;;;;;;5038985;28;20187;-92
2024/01/04 08:17:00;;;;;;;18.13;17.03;;;1.40;90.20;;;;;;5042611;28;20235;-92
2024/01/04 08:19:26;;;;;;;17.63;16.50;;;1.40;90.10;;;;;;5039195;28;20212;-93
2024/01/04 08:21:52;;;;;;;27.67;25.97;;;1.40;90.10;;;;;;5036108;28;20173;-92
2024/01/04 08:24:18;;;;;;;25.80;24.10;;;1.40;90.00;;;;;;5037074;28;20222;-92
2024/01/04 08:26:43;;;;;;;24.03;22.63;;;1.40;89.90;;;;;;5039521;28;20260;-93
2024/01/04 08:29:09;;;;;;;18.00;16.93;;;1.40;89.80;;;;;;5040506;28;20228;-93
2024/01/04 08:31:36;;;;;;;18.30;17.00;;;1.30;89.80;;;;;;5047937;28;20173;-89
2024/01/04 08:34:01;;;;;;;25.23;23.20;;;1.30;89.90;;;;;;5037909;28;20631;-91
2024/01/04 08:36:27;;;;;;;24.27;22.77;;;1.30;89.90;;;;;;5037976;28;20177;-92
2024/01/04 08:38:52;;;;;;;24.97;23.37;;;1.30;89.70;;;;;;5041175;28;20179;-91
2024/01/04 08:41:32;;;;;;;19.00;17.53;;;1.40;89.60;;;;;;5042992;28;20264;-90
2024/01/04 08:44:18;;;;;;;18.67;17.33;;;1.30;89.50;;;;;;5042756;28;20176;-91
2024/01/04 08:46:50;;;;;;;18.60;17.37;;;1.30;89.30;;;;;;5045583;28;20162;-92
2024/01/04 08:49:17;;;;;;;18.10;16.90;;;1.30;89.30;;;;;;5043035;28;20204;-92
2024/01/04 08:51:42;;;;;;;19.07;17.77;;;1.40;89.40;;;;;;5041341;28;20169;-93
2024/01/04 08:54:08;;;;;;;19.97;18.67;;;1.30;89.40;;;;;;5044930;28;20258;-92
2024/01/04 08:56:35;;;;;;;19.43;18.23;;;1.30;89.30;;;;;;5045862;28;20188;-93
2024/01/04 08:59:39;;;;;;;27.37;25.67;;;1.30;89.20;;;;;;5047447;28;20180;-92
2024/01/04 09:02:05;;;;;;;28.87;26.93;;;1.30;88.90;;;;;;4988478;28;20186;-91
2024/01/04 09:04:30;;;;;;;28.63;26.83;;;1.30;88.80;;;;;;4986068;28;20208;-92
2024/01/04 09:06:58;;;;;;;27.00;25.27;;;1.30;88.90;;;;;;5016300;28;20188;-91
2024/01/04 09:09:24;;;;;;;20.50;19.17;;;1.30;89.00;;;;;;5047369;28;20366;-92
2024/01/04 09:11:50;;;;;;;18.93;17.73;;;1.30;89.00;;;;;;5045029;28;20534;-91
2024/01/04 09:14:15;;;;;;;25.13;23.43;;;1.20;89.10;;;;;;5046242;28;20172;-91
2024/01/04 09:16:48;;;;;;;26.37;24.77;;;1.20;89.20;;;;;;5043359;28;20267;-91
2024/01/04 09:19:41;;;;;;;18.80;17.50;;;1.20;89.40;;;;;;5043274;28;20219;-92
2024/01/04 09:22:07;;;;;;;;;;;1.30;89.20;;;;;;5044649;28;20238;-91
2024/01/04 09:24:36;;;;;;;25.97;24.20;;;1.30;89.20;;;;;;5042837;28;19905;-92
2024/01/04 09:27:04;;;;;;;26.97;25.37;;;1.30;89.10;;;;;;5042142;28;20189;-92
2024/01/04 09:29:38;;;;;;;27.80;25.90;;;1.30;89.10;;;;;;5041177;28;20703;-92
2024/01/04 09:32:10;;;;;;;21.07;19.77;;;1.30;88.90;;;;;;5046751;28;20180;-92
2024/01/04 09:34:38;;;;;;;21.00;19.60;;;1.30;88.90;;;;;;5041823;28;20185;-91
2024/01/04 09:37:03;;;;;;;27.40;25.40;;;1.20;88.90;;;;;;5041860;28;20274;-91
2024/01/04 09:39:40;;;;;;;29.17;27.27;;;1.30;88.90;;;;;;5041764;28;20231;-91
2024/01/04 09:42:33;;;;;;;27.50;25.83;;;1.30;88.80;;;;;;5045733;28;20267;-91
2024/01/04 09:45:01;;;;;;;20.60;19.37;;;1.30;89.00;;;;;;5044856;28;20192;-91
2024/01/04 09:47:33;;;;;;;20.30;18.80;;;1.30;89.10;;;;;;5043949;28;20175;-93
2024/01/04 09:50:15;;;;;;;26.10;24.40;;;1.20;89.00;;;;;;5040640;28;20205;-91
2024/01/04 09:52:51;;;;;;;29.07;27.27;;;1.30;89.20;;;;;;5038930;28;20191;-91
2024/01/04 09:55:23;;;;;;;28.67;26.60;;;1.30;89.10;;;;;;5038569;28;20177;-91
2024/01/04 09:57:59;;;;;;;20.90;19.63;;;1.40;89.20;;;;;;5040606;28;20643;-91
2024/01/04 10:03:32;;;;;;;29.40;27.50;;;1.40;89.10;;;;;;5018556;28;20324;-91
2024/01/04 10:06:00;;;;;;;31.13;29.13;;;1.40;89.10;;;;;;5032176;28;20184;-90
2024/01/04 10:08:36;;;;;;;27.40;25.50;;;1.40;89.00;;;;;;5035744;28;20209;-92
2024/01/04 10:11:31;;;;;;;19.07;17.67;;;1.40;89.20;;;;;;5036510;28;20196;-91
2024/01/04 10:14:05;;;;;;;17.83;16.73;;;1.40;89.10;;;;;;5032556;28;20196;-92
2024/01/04 10:17:09;;;;;;;24.53;22.83;;;1.50;89.20;;;;;;5040321;28;20263;-92
2024/01/04 10:23:11;;;;;;;28.40;26.40;;;1.60;89.20;;;;;;5002901;28;20755;-91
2024/01/04 10:25:36;;;;;;;22.37;20.70;;;1.50;88.90;;;;;;4999665;28;20177;-92
2024/01/04 10:28:02;;;;;;;23.53;22.03;;;1.50;88.80;;;;;;5021019;28;20214;-91
2024/01/04 10:30:29;;;;;;;31.83;29.73;;;1.50;88.70;;;;;;5043159;28;20200;-91
2024/01/04 10:32:54;;;;;;;30.03;28.23;;;1.50;88.70;;;;;;5045295;28;20169;-92
2024/01/04 10:35:27;;;;;;;29.07;27.27;;;1.50;88.70;;;;;;5049589;28;20210;-92
2024/01/04 10:38:00;;;;;;;22.90;21.23;;;1.50;88.90;;;;;;5045017;28;20173;-92
2024/01/04 10:40:25;;;;;;;23.03;21.50;;;1.50;88.80;;;;;;5039237;28;20192;-91
2024/01/04 10:42:54;;;;;;;31.87;29.83;;;1.50;88.80;;;;;;5040295;28;20561;-92
2024/01/04 10:45:29;;;;;;;24.80;23.10;;;1.50;88.80;;;;;;5042231;28;20165;-90
2024/01/04 10:47:56;;;;;;;26.03;24.30;;;1.50;88.80;;;;;;5037937;28;20222;-91
2024/01/04 10:50:25;;;;;;;15.23;14.20;;;1.60;88.70;;;;;;5039912;28;20197;-90
2024/01/04 10:52:53;;;;;;;;;;;1.60;88.60;;;;;;5042158;28;20176;-91
2024/01/04 10:55:20;;;;;;;;;;;1.60;88.60;;;;;;5041604;28;20471;-91
2024/01/04 10:57:47;;;;;;;;;;;1.60;88.80;;;;;;5042901;28;19905;-92
2024/01/04 11:00:13;;;;;;;;;;;1.60;88.60;;;;;;5049191;28;19905;-92
2024/01/04 11:02:39;;;;;;;;;;;1.60;88.70;;;;;;5043630;28;19909;-91
2024/01/04 11:05:06;;;;;;;;;;;1.70;88.70;;;;;;5038742;28;20003;-92
2024/01/04 11:07:32;;;;;;;;;;;1.70;88.80;;;;;;5044630;28;19893;-92
2024/01/04 11:09:58;;;;;;;30.83;28.90;;;1.80;88.70;;;;;;5054733;28;19913;-90
2024/01/04 11:12:27;;;;;;;27.77;25.97;;;1.80;88.60;;;;;;5042645;28;20173;-91
2024/01/04 11:14:52;;;;;;;15.50;14.40;;;1.70;88.30;;;;;;5044736;28;20561;-92
2024/01/04 11:17:55;;;;;;;15.07;14.03;;;1.80;88.30;;;;;;5036865;28;20248;-91
2024/01/04 11:20:37;;;;;;;31.03;28.80;;;1.80;88.30;;;;;;5035059;28;20215;-93
2024/01/04 11:23:22;;;;;;;32.93;30.83;;;1.80;87.70;;;;;;5034168;28;25075;-90
2024/01/04 11:26:08;;;;;;;27.10;25.33;;;1.80;87.30;;;;;;5035345;28;20184;-91
2024/01/04 11:28:34;;;;;;;15.63;14.47;;;1.80;87.30;;;;;;5038258;28;20216;-91
2024/01/04 11:31:00;;;;;;;15.43;14.13;;;1.80;87.30;;;;;;5039560;28;20250;-91
2024/01/04 11:33:28;;;;;;;27.00;25.17;;;1.80;87.40;;;;;;5041727;28;20184;-91
2024/01/04 11:35:55;;;;;;;31.97;29.87;;;1.80;87.40;;;;;;5038980;28;20176;-91
2024/01/04 11:38:25;;;;;;;16.30;15.10;;;1.80;87.30;;;;;;5042629;28;20186;-90
2024/01/04 11:40:51;;;;;;;15.50;14.50;;;1.80;87.00;;;;;;5039893;28;20189;-92
2024/01/04 11:43:17;;;;;;;;;;;1.80;87.20;;;;;;5045388;28;20187;-92
2024/01/04 11:45:46;;;;;;;;;;;1.80;87.60;;;;;;5036272;28;20691;-91
2024/01/04 11:48:12;;;;;;;;;;;1.80;87.30;;;;;;5035270;28;20192;-91
2024/01/04 11:50:48;;;;;;;;;;;1.80;87.10;;;;;;5037732;28;20286;-91
2024/01/04 11:53:15;;;;;;;;;;;1.80;86.90;;;;;;5034807;28;20080;-90
2024/01/04 11:55:41;;;;;;;;;;;1.70;86.70;;;;;;5032646;28;20109;-91
2024/01/04 11:58:14;;;;;;;;;;;1.70;86.90;;;;;;5035844;28;20268;-92
2024/01/04 12:00:47;;;;;;;;;;;1.70;87.20;;;;;;5052438;28;20222;-91
2024/01/04 12:03:13;;;;;;;;;;;1.80;87.50;;;;;;5050680;28;20192;-92
2024/01/04 12:05:41;;;;;;;;;;;1.80;87.30;;;;;;5053096;28;20273;-90
2024/01/04 12:08:07;;;;;;;;;;;1.80;86.90;;;;;;5036442;28;20255;-90
2024/01/04 12:10:33;;;;;;;;;;;1.80;86.70;;;;;;5036397;28;20568;-90
2024/01/04 12:12:59;;;;;;;;;;;1.80;86.90;;;;;;5037737;28;25063;-90
2024/01/04 12:15:24;;;;;;;;;;;1.90;86.90;;;;;;5037331;28;20485;-90
2024/01/04 12:17:50;;;;;;;;;;;1.80;86.40;;;;;;5037454;28;20146;-91
2024/01/04 12:20:15;;;;;;;;;;;1.80;86.30;;;;;;5037518;28;19952;-92
2024/01/04 12:22:41;;;;;;;;;;;1.80;86.30;;;;;;5037150;28;19905;-89
2024/01/04 12:25:08;;;;;;;;;;;1.70;85.90;;;;;;5037139;28;19951;-90
2024/01/04 12:27:36;;;;;;;;;;;1.60;85.80;;;;;;5037169;28;19951;-91
2024/01/04 12:30:05;;;;;;;;;;;1.50;85.40;;;;;;5037774;28;19909;-93
2024/01/04 12:32:31;;;;;;;;;;;1.50;85.70;;;;;;5037232;28;20377;-89
2024/01/04 12:34:56;;;;;;;;;;;1.50;85.90;;;;;;5036846;28;19975;-90
2024/01/04 12:37:22;;;;;;;;;;;1.50;86.00;;;;;;5038273;28;19905;-90
2024/01/04 12:39:47;;;;;;;;;;;1.60;86.10;;;;;;5036876;28;19911;-89
2024/01/04 12:42:13;;;;;;;;;;;1.50;86.10;;;;;;5052648;28;20349;-90
2024/01/04 12:44:38;;;;;;;;;;;1.50;86.20;;;;;;5036736;28;20273;-89
2024/01/04 12:47:04;;;;;;;;;;;1.50;86.00;;;;;;5035785;28;19905;-89
2024/01/04 12:49:30;;;;;;;;;;;1.50;86.20;;;;;;5035449;28;19953;-88
2024/01/04 12:51:55;;;;;;;;;;;1.50;86.40;;;;;;5035926;28;19977;-91
2024/01/04 12:54:21;;;;;;;;;;;1.50;86.40;;;;;;5036840;28;19939;-91
2024/01/04 12:56:47;;;;;;;;;;;1.60;86.40;;;;;;5035403;28;20410;-91
2024/01/04 12:59:14;;;;;;;;;;;1.50;86.30;;;;;;5035475;28;20393;-90
2024/01/04 13:01:40;;;;;;;;;;;1.50;86.20;;;;;;5035350;28;19905;-91
2024/01/04 13:04:07;;;;;;;;;;;1.50;85.80;;;;;;5035482;28;20353;-89
2024/01/04 13:06:32;;;;;;;;;;;1.50;86.10;;;;;;5035463;28;19905;-89
2024/01/04 13:08:58;;;;;;;;;;;1.50;86.20;;;;;;5035096;28;19919;-90
2024/01/04 13:11:24;;;;;;;;;;;1.60;86.50;;;;;;5034078;28;19955;-89
2024/01/04 13:13:50;;;;;;;;;;;1.60;86.20;;;;;;5035245;28;20365;-89
2024/01/04 13:16:16;;;;;;;;;;;1.60;86.20;;;;;;5035334;28;20004;-89
2024/01/04 13:18:41;;;;;;;;;;;1.60;85.70;;;;;;5035280;28;19931;-89
2024/01/04 13:21:07;;;;;;;;;;;1.50;85.80;;;;;;5034908;28;19905;-88